createdAt,value
2023-03-20T00:29:01.890Z,1010.35
2023-03-20T00:29:42.226Z,1010.36
2023-03-20T00:30:22.771Z,1010.33
2023-03-20T00:31:03.265Z,1010.35
2023-03-20T00:31:43.811Z,1010.34
2023-03-20T00:32:24.221Z,1010.37
2023-03-20T00:33:04.815Z,1010.38
2023-03-20T00:33:45.196Z,1010.4
2023-03-20T00:34:25.780Z,1010.43
2023-03-20T00:35:06.233Z,1010.42
2023-03-20T00:35:46.702Z,1010.45
2023-03-20T00:36:27.197Z,1010.46
2023-03-20T00:37:07.657Z,1010.48
2023-03-20T00:37:48.242Z,1010.48
2023-03-20T00:38:28.661Z,1010.47
2023-03-20T00:39:09.207Z,1010.48
2023-03-20T00:39:49.702Z,1010.47
2023-03-20T00:40:30.225Z,1010.47
2023-03-20T00:41:10.671Z,1010.46
2023-03-20T00:41:51.220Z,1010.49
2023-03-20T00:42:31.670Z,1010.5
2023-03-20T00:43:12.131Z,1010.53
2023-03-20T00:43:52.678Z,1010.52
2023-03-20T00:47:06.471Z,1010.54
2023-03-20T00:47:46.767Z,1010.55
2023-03-20T00:48:27.338Z,1010.57
2023-03-20T00:49:07.804Z,1010.58
2023-03-20T00:49:48.316Z,1010.53
2023-03-20T00:50:28.843Z,1010.45
2023-03-20T00:51:09.360Z,1010.48
2023-03-20T00:51:49.855Z,1010.52
2023-03-20T00:52:30.374Z,1010.51
2023-03-20T00:53:51.846Z,1010.52
2023-03-20T00:54:31.719Z,1010.52
2023-03-20T00:55:12.198Z,1010.53
2023-03-20T00:55:52.723Z,1010.54
2023-03-20T00:56:33.237Z,1010.56
2023-03-20T00:57:13.764Z,1010.52
2023-03-20T00:57:54.216Z,1010.56
2023-03-20T00:58:34.723Z,1010.55
2023-03-20T00:59:15.272Z,1010.58
2023-03-20T00:59:55.768Z,1010.56
2023-03-20T01:00:36.309Z,1010.59
2023-03-20T01:01:16.771Z,1010.6
2023-03-20T01:01:57.261Z,1010.57
2023-03-20T01:02:37.812Z,1010.59
2023-03-20T01:03:58.796Z,1010.55
2023-03-20T01:04:39.287Z,1010.56
2023-03-20T01:05:19.826Z,1010.54
2023-03-20T01:06:00.377Z,1010.52
2023-03-20T01:06:40.836Z,1010.52
2023-03-20T01:07:21.319Z,1010.51
2023-03-20T01:08:01.848Z,1010.5
2023-03-20T01:08:42.304Z,1010.49
2023-03-20T01:09:22.864Z,1010.5
2023-03-20T01:10:03.349Z,1010.48
2023-03-20T01:10:43.878Z,1010.51
2023-03-20T01:11:24.369Z,1010.52
2023-03-20T01:12:04.904Z,1010.51
2023-03-20T01:12:45.403Z,1010.5
2023-03-20T01:14:06.372Z,1010.47
2023-03-20T01:14:46.830Z,1010.48
2023-03-20T01:15:27.383Z,1010.5
2023-03-20T01:16:07.852Z,1010.5
2023-03-20T01:16:48.460Z,1010.5
2023-03-20T01:17:28.827Z,1010.49
2023-03-20T01:18:09.385Z,1010.45
2023-03-20T01:18:49.842Z,1010.45
2023-03-20T01:19:30.378Z,1010.46
2023-03-20T01:20:10.921Z,1010.44
2023-03-20T01:20:51.476Z,1010.4
2023-03-20T01:21:31.942Z,1010.41
2023-03-20T01:22:12.497Z,1010.41
2023-03-20T01:22:53.040Z,1010.42
2023-03-20T01:23:33.501Z,1010.4
2023-03-20T01:24:13.998Z,1010.43
2023-03-20T01:24:55.219Z,1010.41
2023-03-20T01:25:35.877Z,1010.43
2023-03-20T01:26:16.163Z,1010.45
2023-03-20T01:26:56.636Z,1010.44
2023-03-20T01:27:37.121Z,1010.43
2023-03-20T01:28:17.656Z,1010.41
2023-03-20T01:28:58.119Z,1010.41
2023-03-20T01:29:38.639Z,1010.41
2023-03-20T01:30:19.146Z,1010.43
2023-03-20T01:30:59.680Z,1010.39
2023-03-20T01:31:40.200Z,1010.4
2023-03-20T01:32:20.696Z,1010.4
2023-03-20T01:33:01.208Z,1010.41
2023-03-20T01:33:41.778Z,1010.4
2023-03-20T01:34:22.253Z,1010.38
2023-03-20T01:35:02.749Z,1010.37
2023-03-20T01:35:43.321Z,1010.35
2023-03-20T01:36:23.878Z,1010.35
2023-03-20T01:37:04.302Z,1010.32
2023-03-20T01:37:44.784Z,1010.29
2023-03-20T01:38:25.319Z,1010.31
2023-03-20T01:39:05.823Z,1010.29
2023-03-20T01:39:46.332Z,1010.26
2023-03-20T01:40:26.838Z,1010.24
2023-03-20T01:41:47.834Z,1010.2
2023-03-20T01:42:28.340Z,1010.14
2023-03-20T01:43:08.850Z,1010.14
2023-03-20T01:43:49.293Z,1010.13
2023-03-20T01:47:04.492Z,1010.08
2023-03-20T01:47:45.340Z,1010.09
2023-03-20T01:48:26.327Z,1010.14
2023-03-20T01:49:07.352Z,1010.11
2023-03-20T01:49:48.499Z,1010.1
2023-03-20T01:50:29.477Z,1010.12
2023-03-20T01:51:10.530Z,1010.14
2023-03-20T01:51:51.483Z,1010.11
2023-03-20T01:52:32.480Z,1010.15
2023-03-20T01:53:13.493Z,1010.15
2023-03-20T01:53:54.502Z,1010.13
2023-03-20T01:54:35.453Z,1010.11
2023-03-20T01:55:16.461Z,1010.16
2023-03-20T01:55:57.476Z,1010.1
2023-03-20T01:56:39.006Z,1010.12
2023-03-20T01:57:19.446Z,1010.12
2023-03-20T01:58:00.464Z,1010.15
2023-03-20T01:58:41.474Z,1010.13
2023-03-20T01:59:22.405Z,1010.17
2023-03-20T02:00:03.425Z,1010.14
2023-03-20T02:00:44.387Z,1010.18
2023-03-20T02:01:25.526Z,1010.2
2023-03-20T02:02:06.443Z,1010.19
2023-03-20T02:02:47.394Z,1010.23
2023-03-20T02:03:28.348Z,1010.22
2023-03-20T02:04:09.389Z,1010.24
2023-03-20T02:04:50.474Z,1010.27
2023-03-20T02:05:31.342Z,1010.24
2023-03-20T02:06:12.308Z,1010.23
2023-03-20T02:06:53.350Z,1010.26
2023-03-20T02:07:34.407Z,1010.27
2023-03-20T02:08:15.448Z,1010.26
2023-03-20T02:09:37.395Z,1010.22
2023-03-20T02:10:18.368Z,1010.3
2023-03-20T02:10:59.389Z,1010.27
2023-03-20T02:11:40.380Z,1010.3
2023-03-20T02:12:21.395Z,1010.35
2023-03-20T02:13:02.364Z,1010.35
2023-03-20T02:13:43.341Z,1010.38
2023-03-20T02:14:24.329Z,1010.38
2023-03-20T02:15:05.289Z,1010.4
2023-03-20T02:15:46.423Z,1010.34
2023-03-20T02:16:27.428Z,1010.38
2023-03-20T02:17:08.398Z,1010.36
2023-03-20T02:17:49.417Z,1010.4
2023-03-20T02:18:30.399Z,1010.41
2023-03-20T02:19:11.587Z,1010.39
2023-03-20T02:19:52.568Z,1010.4
2023-03-20T02:20:33.552Z,1010.45
2023-03-20T02:21:14.663Z,1010.46
2023-03-20T02:21:55.668Z,1010.47
2023-03-20T02:22:36.658Z,1010.42
2023-03-20T02:23:17.837Z,1010.46
2023-03-20T02:23:58.754Z,1010.4
2023-03-20T02:24:39.760Z,1010.41
2023-03-20T02:25:20.718Z,1010.4
2023-03-20T02:26:01.744Z,1010.4
2023-03-20T02:26:42.715Z,1010.44
2023-03-20T02:27:23.714Z,1010.35
2023-03-20T02:28:04.791Z,1010.35
2023-03-20T02:28:45.763Z,1010.29
2023-03-20T02:29:26.761Z,1010.27
2023-03-20T02:30:07.812Z,1010.27
2023-03-20T02:30:48.730Z,1010.25
2023-03-20T02:31:29.642Z,1010.21
2023-03-20T02:32:10.635Z,1010.21
2023-03-20T02:32:51.678Z,1010.23
2023-03-20T02:33:32.636Z,1010.18
2023-03-20T02:34:13.617Z,1010.19
2023-03-20T02:34:54.697Z,1010.2
2023-03-20T02:35:35.868Z,1010.16
2023-03-20T02:36:16.804Z,1010.16
2023-03-20T02:36:57.722Z,1010.13
2023-03-20T02:37:38.729Z,1010.21
2023-03-20T02:38:19.841Z,1010.2
2023-03-20T02:39:00.850Z,1010.24
2023-03-20T02:39:41.805Z,1010.27
2023-03-20T02:40:22.852Z,1010.29
2023-03-20T02:41:03.857Z,1010.32
2023-03-20T02:41:44.869Z,1010.29
2023-03-20T02:42:25.852Z,1010.31
2023-03-20T02:43:06.866Z,1010.26
2023-03-20T02:43:47.801Z,1010.2
2023-03-20T02:44:28.791Z,1010.16
2023-03-20T02:45:09.899Z,1010.17
2023-03-20T02:45:50.990Z,1010.14
2023-03-20T02:46:31.938Z,1010.09
2023-03-20T02:47:12.867Z,1010.07
2023-03-20T02:47:53.977Z,1010
2023-03-20T02:48:34.971Z,1009.99
2023-03-20T02:49:15.978Z,1010.04
2023-03-20T02:49:56.982Z,1009.98
2023-03-20T02:50:38.003Z,1010.05
2023-03-20T02:51:18.953Z,1010.08
2023-03-20T02:52:00.122Z,1010.13
2023-03-20T02:52:41.213Z,1010.18
2023-03-20T02:53:22.197Z,1010.18
2023-03-20T02:54:03.188Z,1010.21
2023-03-20T02:54:44.220Z,1010.26
2023-03-20T02:55:25.207Z,1010.24
2023-03-20T02:56:06.354Z,1010.22
2023-03-20T02:56:47.341Z,1010.28
2023-03-20T02:57:28.324Z,1010.26
2023-03-20T02:58:09.328Z,1010.29
2023-03-20T02:58:50.290Z,1010.25
2023-03-20T02:59:31.276Z,1010.24
2023-03-20T03:00:12.251Z,1010.28
2023-03-20T03:00:53.383Z,1010.3
2023-03-20T03:01:34.373Z,1010.34
2023-03-20T03:02:15.362Z,1010.33
2023-03-20T03:02:56.405Z,1010.37
2023-03-20T03:03:37.464Z,1010.39
2023-03-20T03:04:18.499Z,1010.38
2023-03-20T03:04:59.584Z,1010.4
2023-03-20T03:05:40.643Z,1010.37
2023-03-20T03:06:21.652Z,1010.32
2023-03-20T03:07:02.626Z,1010.33
2023-03-20T03:07:43.712Z,1010.32
2023-03-20T03:08:24.688Z,1010.31
2023-03-20T03:09:05.726Z,1010.3
2023-03-20T03:10:27.696Z,1010.27
2023-03-20T03:11:08.817Z,1010.29
2023-03-20T03:11:49.670Z,1010.25
2023-03-20T03:12:30.662Z,1010.29
2023-03-20T03:13:11.787Z,1010.28
2023-03-20T03:13:52.757Z,1010.3
2023-03-20T03:14:33.746Z,1010.34
2023-03-20T03:15:14.753Z,1010.3
2023-03-20T03:15:55.718Z,1010.41
2023-03-20T03:16:36.719Z,1010.41
2023-03-20T03:17:17.748Z,1010.44
2023-03-20T03:17:58.693Z,1010.46
2023-03-20T03:18:39.785Z,1010.4
2023-03-20T03:19:20.811Z,1010.41
2023-03-20T03:20:01.775Z,1010.38
2023-03-20T03:20:42.772Z,1010.36
2023-03-20T03:21:23.927Z,1010.38
2023-03-20T03:22:04.893Z,1010.39
2023-03-20T03:22:45.936Z,1010.36
2023-03-20T03:23:26.994Z,1010.39
2023-03-20T03:24:07.934Z,1010.39
2023-03-20T03:24:48.947Z,1010.34
2023-03-20T03:25:29.901Z,1010.32
2023-03-20T03:26:10.874Z,1010.33
2023-03-20T03:26:51.815Z,1010.3
2023-03-20T03:27:32.925Z,1010.3
2023-03-20T03:28:13.983Z,1010.29
2023-03-20T03:28:55.028Z,1010.25
2023-03-20T03:29:36.018Z,1010.27
2023-03-20T03:30:17.011Z,1010.21
2023-03-20T03:30:57.985Z,1010.14
2023-03-20T03:31:39.027Z,1010.12
2023-03-20T03:32:19.947Z,1010.08
2023-03-20T03:33:01.057Z,1010.04
2023-03-20T03:33:41.981Z,1010.02
2023-03-20T03:34:23.140Z,1010.02
2023-03-20T03:35:04.077Z,1010.03
2023-03-20T03:35:45.068Z,1010.03
2023-03-20T03:36:26.090Z,1010.06
2023-03-20T03:37:07.219Z,1010.05
2023-03-20T03:37:48.235Z,1010.11
2023-03-20T03:38:29.382Z,1010.1
2023-03-20T03:39:10.337Z,1010.13
2023-03-20T03:39:51.398Z,1010.14
2023-03-20T03:40:32.363Z,1010.16
2023-03-20T03:41:13.335Z,1010.18
2023-03-20T03:41:54.358Z,1010.24
2023-03-20T03:42:35.439Z,1010.29
2023-03-20T03:43:16.392Z,1010.28
2023-03-20T03:43:57.369Z,1010.36
2023-03-20T03:44:38.371Z,1010.35
2023-03-20T03:45:19.364Z,1010.37
2023-03-20T03:46:00.339Z,1010.38
2023-03-20T03:46:43.480Z,1010.4
2023-03-20T03:47:22.443Z,1010.42
2023-03-20T03:48:03.502Z,1010.43
2023-03-20T03:48:44.447Z,1010.43
2023-03-20T03:49:25.466Z,1010.43
2023-03-20T03:50:06.473Z,1010.44
2023-03-20T03:51:28.548Z,1010.47
2023-03-20T03:52:09.606Z,1010.52
2023-03-20T03:52:50.580Z,1010.53
2023-03-20T03:53:31.498Z,1010.55
2023-03-20T03:54:12.530Z,1010.58
2023-03-20T03:54:53.521Z,1010.59
2023-03-20T03:55:34.974Z,1010.6
2023-03-20T03:56:15.603Z,1010.62
2023-03-20T03:56:56.585Z,1010.65
2023-03-20T03:57:37.609Z,1010.64
2023-03-20T03:58:18.547Z,1010.67
2023-03-20T03:58:59.573Z,1010.7
2023-03-20T03:59:40.717Z,1010.67
2023-03-20T04:00:21.648Z,1010.68
2023-03-20T04:01:02.638Z,1010.68
2023-03-20T04:01:43.640Z,1010.65
2023-03-20T04:02:24.646Z,1010.65
2023-03-20T04:03:05.560Z,1010.67
2023-03-20T04:03:46.550Z,1010.69
2023-03-20T04:04:27.553Z,1010.7
2023-03-20T04:05:08.562Z,1010.69
2023-03-20T04:05:49.673Z,1010.64
2023-03-20T04:06:30.690Z,1010.65
2023-03-20T04:07:11.817Z,1010.62
2023-03-20T04:07:52.881Z,1010.57
2023-03-20T04:08:33.849Z,1010.52
2023-03-20T04:09:14.986Z,1010.52
2023-03-20T04:09:55.943Z,1010.49
2023-03-20T04:10:36.966Z,1010.52
2023-03-20T04:11:17.933Z,1010.56
2023-03-20T04:11:58.926Z,1010.58
2023-03-20T04:12:39.946Z,1010.57
2023-03-20T04:13:21.037Z,1010.54
2023-03-20T04:14:02.026Z,1010.49
2023-03-20T04:14:43.039Z,1010.44
2023-03-20T04:15:24.008Z,1010.4
2023-03-20T04:16:04.909Z,1010.41
2023-03-20T04:16:45.894Z,1010.4
2023-03-20T04:17:26.883Z,1010.41
2023-03-20T04:18:07.875Z,1010.43
2023-03-20T04:18:48.874Z,1010.45
2023-03-20T04:19:29.902Z,1010.46
2023-03-20T04:20:10.875Z,1010.46
2023-03-20T04:20:51.958Z,1010.48
2023-03-20T04:21:32.970Z,1010.46
2023-03-20T04:22:13.946Z,1010.42
2023-03-20T04:22:55.008Z,1010.4
2023-03-20T04:24:16.963Z,1010.45
2023-03-20T04:24:57.908Z,1010.48
2023-03-20T04:25:38.900Z,1010.5
2023-03-20T04:26:20.039Z,1010.45
2023-03-20T04:27:00.986Z,1010.46
2023-03-20T04:27:41.982Z,1010.42
2023-03-20T04:28:22.976Z,1010.41
2023-03-20T04:29:04.008Z,1010.39
2023-03-20T04:29:45.063Z,1010.35
2023-03-20T04:30:26.065Z,1010.37
2023-03-20T04:31:07.665Z,1010.37
2023-03-20T04:31:48.147Z,1010.36
2023-03-20T04:32:29.042Z,1010.34
2023-03-20T04:33:10.090Z,1010.35
2023-03-20T04:33:51.087Z,1010.36
2023-03-20T04:34:32.170Z,1010.34
2023-03-20T04:35:13.169Z,1010.32
2023-03-20T04:35:54.168Z,1010.36
2023-03-20T04:36:35.131Z,1010.36
2023-03-20T04:37:16.103Z,1010.38
2023-03-20T04:37:57.149Z,1010.35
2023-03-20T04:39:19.215Z,1010.37
2023-03-20T04:40:00.266Z,1010.37
2023-03-20T04:40:41.287Z,1010.33
2023-03-20T04:41:22.315Z,1010.36
2023-03-20T04:42:03.340Z,1010.35
2023-03-20T04:42:44.342Z,1010.35
2023-03-20T04:43:26.063Z,1010.36
2023-03-20T04:44:06.455Z,1010.32
2023-03-20T04:44:47.463Z,1010.32
2023-03-20T04:45:28.441Z,1010.32
2023-03-20T04:46:09.569Z,1010.24
2023-03-20T04:46:50.569Z,1010.24
2023-03-20T04:47:31.623Z,1010.24
2023-03-20T04:48:12.468Z,1010.22
2023-03-20T04:48:53.546Z,1010.21
2023-03-20T04:49:34.537Z,1010.22
2023-03-20T04:50:15.622Z,1010.21
2023-03-20T04:50:56.623Z,1010.23
2023-03-20T04:51:37.639Z,1010.21
2023-03-20T04:52:18.614Z,1010.26
2023-03-20T04:52:59.614Z,1010.3
2023-03-20T04:53:40.829Z,1010.29
2023-03-20T04:54:21.741Z,1010.32
2023-03-20T04:55:02.745Z,1010.35
2023-03-20T04:57:15.949Z,1010.32
2023-03-20T04:57:56.261Z,1010.29
2023-03-20T04:58:36.843Z,1010.33
2023-03-20T04:59:17.315Z,1010.29
2023-03-20T04:59:57.779Z,1010.31
2023-03-20T05:00:38.277Z,1010.33
2023-03-20T05:01:18.836Z,1010.31
2023-03-20T05:01:59.266Z,1010.3
2023-03-20T05:02:39.750Z,1010.29
2023-03-20T05:03:23.372Z,1010.29
2023-03-20T05:04:00.851Z,1010.21
2023-03-20T05:04:41.169Z,1010.23
2023-03-20T05:05:21.656Z,1010.24
2023-03-20T05:06:02.131Z,1010.26
2023-03-20T05:06:42.624Z,1010.25
2023-03-20T05:07:23.082Z,1010.24
2023-03-20T05:08:03.584Z,1010.21
2023-03-20T05:08:44.114Z,1010.22
2023-03-20T05:09:24.522Z,1010.21
2023-03-20T05:10:05.018Z,1010.24
2023-03-20T05:10:45.529Z,1010.25
2023-03-20T05:11:26.025Z,1010.2
2023-03-20T05:12:06.545Z,1010.2
2023-03-20T05:12:46.974Z,1010.2
2023-03-20T05:13:27.453Z,1010.19
2023-03-20T05:14:07.926Z,1010.15
2023-03-20T05:14:48.459Z,1010.2
2023-03-20T05:15:28.908Z,1010.18
2023-03-20T05:16:09.419Z,1010.18
2023-03-20T05:16:49.935Z,1010.17
2023-03-20T05:17:30.374Z,1010.15
2023-03-20T05:18:10.851Z,1010.18
2023-03-20T05:18:51.321Z,1010.16
2023-03-20T05:19:31.803Z,1010.18
2023-03-20T05:20:12.343Z,1010.2
2023-03-20T05:20:52.803Z,1010.22
2023-03-20T05:21:33.313Z,1010.17
2023-03-20T05:22:13.752Z,1010.19
2023-03-20T05:22:54.234Z,1010.18
2023-03-20T05:23:34.679Z,1010.16
2023-03-20T05:24:15.153Z,1010.17
2023-03-20T05:24:55.602Z,1010.16
2023-03-20T05:25:36.491Z,1010.15
2023-03-20T05:26:16.601Z,1010.1
2023-03-20T05:26:57.101Z,1010.09
2023-03-20T05:27:37.571Z,1010.11
2023-03-20T05:28:18.052Z,1010.13
2023-03-20T05:29:39.006Z,1010.16
2023-03-20T05:30:19.506Z,1010.18
2023-03-20T05:31:00.017Z,1010.19
2023-03-20T05:31:40.501Z,1010.21
2023-03-20T05:32:20.988Z,1010.17
2023-03-20T05:33:01.503Z,1010.18
2023-03-20T05:33:41.930Z,1010.19
2023-03-20T05:34:22.417Z,1010.2
2023-03-20T05:35:02.912Z,1010.16
2023-03-20T05:35:43.471Z,1010.15
2023-03-20T05:36:23.891Z,1010.13
2023-03-20T05:37:04.377Z,1010.13
2023-03-20T05:37:44.869Z,1010.14
2023-03-20T05:38:25.300Z,1010.18
2023-03-20T05:39:05.798Z,1010.21
2023-03-20T05:39:46.320Z,1010.22
2023-03-20T05:40:26.792Z,1010.24
2023-03-20T05:41:07.257Z,1010.24
2023-03-20T05:41:47.722Z,1010.22
2023-03-20T05:42:28.274Z,1010.23
2023-03-20T05:43:08.720Z,1010.23
2023-03-20T05:43:49.230Z,1010.24
2023-03-20T05:44:29.696Z,1010.26
2023-03-20T05:45:10.249Z,1010.23
2023-03-20T05:45:50.722Z,1010.21
2023-03-20T05:46:31.328Z,1010.2
2023-03-20T05:47:11.704Z,1010.2
2023-03-20T05:47:52.254Z,1010.15
2023-03-20T05:48:32.705Z,1010.14
2023-03-20T05:49:13.189Z,1010.16
2023-03-20T05:49:53.675Z,1010.16
2023-03-20T05:50:34.190Z,1010.18
2023-03-20T05:51:14.659Z,1010.18
2023-03-20T05:51:55.167Z,1010.2
2023-03-20T05:52:35.680Z,1010.19
2023-03-20T06:31:28.325Z,1010.28
2023-03-20T06:32:09.341Z,1010.28
2023-03-20T06:32:49.894Z,1010.3
2023-03-20T06:33:30.403Z,1010.29
2023-03-20T06:34:10.864Z,1010.28
2023-03-20T06:34:51.387Z,1010.2
2023-03-20T06:35:31.896Z,1010.23
2023-03-20T06:36:12.347Z,1010.17
2023-03-20T06:36:52.870Z,1010.22
2023-03-20T06:37:33.393Z,1010.22
2023-03-20T06:38:13.866Z,1010.23
2023-03-20T06:38:54.341Z,1010.26
2023-03-20T06:39:34.971Z,1010.24
2023-03-20T06:40:15.398Z,1010.21
2023-03-20T06:40:55.898Z,1010.27
2023-03-20T06:41:36.405Z,1010.26
2023-03-20T06:42:17.092Z,1010.24
2023-03-20T06:42:57.546Z,1010.2
2023-03-20T06:43:38.180Z,1010.24
2023-03-20T06:44:19.329Z,1010.24
2023-03-20T06:44:59.829Z,1010.24
2023-03-20T06:45:40.325Z,1010.24
2023-03-20T06:46:20.904Z,1010.26
2023-03-20T06:47:01.433Z,1010.28
2023-03-20T06:47:42.154Z,1010.21
2023-03-20T06:48:22.498Z,1010.26
2023-03-20T06:49:03.852Z,1010.3
2023-03-20T06:49:45.875Z,1010.29
2023-03-20T06:50:25.004Z,1010.29
2023-03-20T06:51:05.486Z,1010.36
2023-03-20T06:51:45.952Z,1010.35
2023-03-20T06:52:26.444Z,1010.37
2023-03-20T06:53:06.960Z,1010.39
2023-03-20T06:53:48.258Z,1010.37
2023-03-20T06:54:28.848Z,1010.39
2023-03-20T06:55:09.511Z,1010.42
2023-03-20T06:55:50.027Z,1010.44
2023-03-20T06:56:30.601Z,1010.42
2023-03-20T06:57:12.349Z,1010.41
2023-03-20T07:00:10.903Z,1010.49
2023-03-20T07:00:52.532Z,1010.47
2023-03-20T07:01:33.410Z,1010.48
2023-03-20T07:02:13.947Z,1010.48
2023-03-20T07:02:54.375Z,1010.51
2023-03-20T07:03:35.731Z,1010.51
2023-03-20T07:04:15.458Z,1010.51
2023-03-20T07:04:56.536Z,1010.54
2023-03-20T07:05:36.778Z,1010.52
2023-03-20T07:06:17.018Z,1010.55
2023-03-20T07:06:57.547Z,1010.59
2023-03-20T07:07:38.160Z,1010.62
2023-03-20T07:08:18.610Z,1010.62
2023-03-20T07:08:59.145Z,1010.61
2023-03-20T07:09:40.629Z,1010.62
2023-03-20T07:10:21.146Z,1010.68
2023-03-20T07:11:02.426Z,1010.69
2023-03-20T07:11:42.988Z,1010.7
2023-03-20T07:12:23.609Z,1010.7
2023-03-20T07:13:04.156Z,1010.76
2023-03-20T07:13:44.817Z,1010.78
2023-03-20T07:14:28.958Z,1010.82
2023-03-20T07:15:17.435Z,1010.81
2023-03-20T07:18:31.814Z,1010.84
2023-03-20T07:19:12.628Z,1010.87
2023-03-20T07:19:54.411Z,1010.84
2023-03-20T07:20:36.349Z,1010.84
2023-03-20T07:21:16.710Z,1010.86
2023-03-20T07:22:39.015Z,1010.9
2023-03-20T07:23:22.392Z,1010.88
2023-03-20T07:24:04.412Z,1010.9
2023-03-20T07:27:18.401Z,1010.91
2023-03-20T07:27:58.816Z,1010.92
2023-03-20T07:28:39.361Z,1010.93
2023-03-20T07:29:19.858Z,1010.97
2023-03-20T07:30:00.483Z,1010.95
2023-03-20T07:30:40.952Z,1010.95
2023-03-20T07:31:21.463Z,1010.99
2023-03-20T07:32:01.995Z,1010.99
2023-03-20T07:32:42.514Z,1011
2023-03-20T07:33:23.081Z,1011
2023-03-20T07:34:03.650Z,1011.01
2023-03-20T07:34:44.264Z,1011.01
2023-03-20T07:35:24.758Z,1011
2023-03-20T07:36:05.287Z,1011.04
2023-03-20T07:36:45.773Z,1011.04
2023-03-20T07:37:27.167Z,1011.04
2023-03-20T07:38:07.705Z,1011.04
2023-03-20T07:42:43.763Z,1011.06
2023-03-20T07:43:24.397Z,1011.05
2023-03-20T07:44:05.737Z,1011.07
2023-03-20T07:44:48.735Z,1011.09
2023-03-20T07:45:36.241Z,1011.08
2023-03-20T07:46:17.035Z,1011.07
2023-03-20T07:46:58.169Z,1011.05
2023-03-20T07:47:39.178Z,1011.1
2023-03-20T07:48:20.187Z,1011.08
2023-03-20T07:50:19.275Z,1011.1
2023-03-20T07:50:59.423Z,1011.08
2023-03-20T07:51:42.107Z,1011.09
2023-03-20T07:52:23.464Z,1011.1
2023-03-20T07:53:03.613Z,1011.08
2023-03-20T07:53:44.170Z,1011.08
2023-03-20T07:54:26.288Z,1011.11
2023-03-20T07:57:25.489Z,1011.16
2023-03-20T07:58:08.515Z,1011.14
2023-03-20T07:58:49.622Z,1011.13
2023-03-20T08:03:39.007Z,1011.11
2023-03-20T08:04:19.420Z,1011.09
2023-03-20T08:05:00.420Z,1011.1
2023-03-20T08:05:40.379Z,1011.13
2023-03-20T08:06:20.914Z,1011.11
2023-03-20T08:07:01.529Z,1011.13
2023-03-20T08:07:42.103Z,1011.14
2023-03-20T08:08:22.679Z,1011.19
2023-03-20T08:09:03.258Z,1011.19
2023-03-20T08:09:43.865Z,1011.17
2023-03-20T08:10:24.447Z,1011.2
2023-03-20T08:11:07.957Z,1011.23
2023-03-20T08:11:48.605Z,1011.2
2023-03-20T08:12:29.115Z,1011.23
2023-03-20T08:13:09.701Z,1011.21
2023-03-20T08:13:50.247Z,1011.21
2023-03-20T08:14:31.059Z,1011.23
2023-03-20T08:15:11.525Z,1011.25
2023-03-20T08:18:55.527Z,1011.24
2023-03-20T08:19:36.135Z,1011.2
2023-03-20T08:20:16.842Z,1011.22
2023-03-20T08:20:58.160Z,1011.23
2023-03-20T08:21:38.646Z,1011.23
2023-03-20T08:25:14.411Z,1011.21
2023-03-20T08:25:54.805Z,1011.18
2023-03-20T08:26:35.313Z,1011.23
2023-03-20T08:27:15.830Z,1011.22
2023-03-20T08:27:56.433Z,1011.24
2023-03-20T08:28:47.359Z,1011.23
2023-03-20T08:29:18.449Z,1011.2
2023-03-20T08:29:58.981Z,1011.19
2023-03-20T08:33:28.658Z,1011.18
2023-03-20T08:34:09.534Z,1011.22
2023-03-20T08:34:50.910Z,1011.27
2023-03-20T08:35:33.759Z,1011.24
2023-03-20T08:36:13.782Z,1011.24
2023-03-20T08:36:54.294Z,1011.23
2023-03-20T08:48:13.992Z,1011.33
2023-03-20T08:48:54.343Z,1011.31
2023-03-20T08:49:34.983Z,1011.32
2023-03-20T08:50:15.555Z,1011.33
2023-03-20T08:50:56.767Z,1011.36
2023-03-20T08:51:37.408Z,1011.36
2023-03-20T08:52:18.068Z,1011.36
2023-03-20T08:52:59.454Z,1011.31
2023-03-20T08:53:42.034Z,1011.3
2023-03-20T08:54:22.710Z,1011.34
2023-03-20T08:55:03.320Z,1011.3
2023-03-20T08:55:43.864Z,1011.36
2023-03-20T08:56:24.440Z,1011.3
2023-03-20T08:57:05.157Z,1011.3
2023-03-20T08:57:46.353Z,1011.28
2023-03-20T09:00:05.898Z,1011.31
2023-03-20T09:00:44.182Z,1011.28
2023-03-20T09:01:30.359Z,1011.26
2023-03-20T09:02:05.701Z,1011.28
2023-03-20T09:02:46.773Z,1011.26
2023-03-20T09:03:30.104Z,1011.28
2023-03-20T09:04:10.691Z,1011.33
2023-03-20T09:04:53.013Z,1011.24
2023-03-20T09:05:34.315Z,1011.29
2023-03-20T09:06:14.776Z,1011.22
2023-03-20T09:06:55.661Z,1011.26
2023-03-20T09:07:36.401Z,1011.24
2023-03-20T09:08:17.944Z,1011.31
2023-03-20T09:08:59.733Z,1011.28
2023-03-20T09:09:42.130Z,1011.31
2023-03-20T09:12:15.818Z,1011.25
2023-03-20T09:12:56.462Z,1011.32
2023-03-20T09:13:37.001Z,1011.37
2023-03-20T09:15:42.144Z,1011.26
2023-03-20T09:16:28.715Z,1011.39
2023-03-20T09:17:18.897Z,1011.41
2023-03-20T09:19:31.359Z,1011.42
2023-03-20T09:20:10.056Z,1011.42
2023-03-20T09:20:50.670Z,1011.39
2023-03-20T09:21:31.320Z,1011.38
2023-03-20T09:22:12.052Z,1011.41
2023-03-20T09:22:52.672Z,1011.38
2023-03-20T09:23:33.433Z,1011.44
2023-03-20T09:24:13.978Z,1011.45
2023-03-20T09:24:58.494Z,1011.42
2023-03-20T09:25:38.961Z,1011.37
2023-03-20T09:26:20.123Z,1011.33
2023-03-20T09:27:03.571Z,1011.4
2023-03-20T09:27:42.188Z,1011.43
2023-03-20T09:28:22.699Z,1011.38
2023-03-20T09:29:04.039Z,1011.28
2023-03-20T09:29:45.831Z,1011.36
2023-03-20T09:33:14.900Z,1011.27
2023-03-20T09:35:13.441Z,1011.31
2023-03-20T09:35:57.594Z,1011.34
2023-03-20T09:36:40.088Z,1011.34
2023-03-20T09:37:21.929Z,1011.31
2023-03-20T09:38:04.542Z,1011.37
2023-03-20T09:38:45.696Z,1011.34
2023-03-20T09:39:26.718Z,1011.33
2023-03-20T09:40:07.795Z,1011.33
2023-03-20T09:40:48.899Z,1011.27
2023-03-20T09:41:30.018Z,1011.31
2023-03-20T09:42:13.564Z,1011.29
2023-03-20T09:42:54.624Z,1011.28
2023-03-20T09:43:36.321Z,1011.32
2023-03-20T09:44:17.357Z,1011.3
2023-03-20T09:44:58.548Z,1011.31
2023-03-20T09:45:39.620Z,1011.28
2023-03-20T09:46:21.623Z,1011.29
2023-03-20T09:47:19.136Z,1011.27
2023-03-20T09:47:48.081Z,1011.35
2023-03-20T09:48:29.199Z,1011.34
2023-03-20T09:49:10.951Z,1011.32
2023-03-20T09:49:52.198Z,1011.29
2023-03-20T09:50:33.334Z,1011.33
2023-03-20T09:51:14.304Z,1011.27
2023-03-20T09:51:55.490Z,1011.29
2023-03-20T09:52:36.477Z,1011.26
2023-03-20T09:53:17.649Z,1011.34
2023-03-20T09:54:01.547Z,1011.3
2023-03-20T09:54:53.479Z,1011.31
2023-03-20T09:56:39.788Z,1011.37
2023-03-20T09:57:22.351Z,1011.2
2023-03-20T09:58:03.117Z,1011.29
2023-03-20T09:58:44.562Z,1011.35
2023-03-20T09:59:25.119Z,1011.38
2023-03-20T10:00:07.622Z,1011.35
2023-03-20T10:00:50.066Z,1011.42
2023-03-20T10:01:30.568Z,1011.43
2023-03-20T10:02:12.153Z,1011.47
2023-03-20T10:02:53.009Z,1011.41
2023-03-20T10:07:26.304Z,1011.44
2023-03-20T10:08:07.070Z,1011.44
2023-03-20T10:08:49.036Z,1011.37
2023-03-20T10:09:31.917Z,1011.43
2023-03-20T10:10:12.856Z,1011.33
2023-03-20T10:10:54.154Z,1011.44
2023-03-20T10:11:36.330Z,1011.41
2023-03-20T10:12:19.158Z,1011.35
2023-03-20T10:13:00.259Z,1011.43
2023-03-20T10:13:41.228Z,1011.41
2023-03-20T10:14:22.448Z,1011.43
2023-03-20T10:15:04.349Z,1011.4
2023-03-20T10:18:05.560Z,1011.34
2023-03-20T10:18:45.836Z,1011.42
2023-03-20T10:19:26.608Z,1011.43
2023-03-20T10:20:07.191Z,1011.42
2023-03-20T10:20:50.322Z,1011.3
2023-03-20T10:21:28.175Z,1011.38
2023-03-20T10:23:43.383Z,1011.39
2023-03-20T10:24:24.309Z,1011.38
2023-03-20T10:25:05.012Z,1011.38
2023-03-20T10:25:45.962Z,1011.39
2023-03-20T10:26:26.873Z,1011.36
2023-03-20T10:27:08.128Z,1011.39
2023-03-20T10:36:36.670Z,1011.35
2023-03-20T10:37:17.137Z,1011.36
2023-03-20T10:37:57.718Z,1011.32
2023-03-20T10:38:38.297Z,1011.3
2023-03-20T10:39:18.843Z,1011.4
2023-03-20T10:39:59.421Z,1011.36
2023-03-20T10:41:20.430Z,1011.37
2023-03-20T10:42:01.001Z,1011.37
2023-03-20T10:42:42.096Z,1011.4
2023-03-20T10:43:22.635Z,1011.38
2023-03-20T10:44:04.232Z,1011.36
2023-03-20T10:44:44.976Z,1011.34
2023-03-20T10:46:44.451Z,1011.37